createdAt,value
2023-05-19T00:00:16.116Z,99181.75
2023-05-19T00:02:44.082Z,99181.06
2023-05-19T00:05:11.171Z,99181.53
2023-05-19T00:07:38.466Z,99179.84
2023-05-19T00:10:05.483Z,99173.97
2023-05-19T00:12:31.902Z,99179.34
2023-05-19T00:14:58.349Z,99169.69
2023-05-19T00:17:25.090Z,99172.81
2023-05-19T00:19:52.414Z,99172.47
2023-05-19T00:22:18.735Z,99166.53
2023-05-19T00:24:45.035Z,99169.63
2023-05-19T00:27:11.349Z,99170.59
2023-05-19T00:29:37.716Z,99163.97
2023-05-19T00:32:04.187Z,99164.09
2023-05-19T00:34:30.592Z,99165.69
2023-05-19T00:36:56.916Z,99169.72
2023-05-19T00:39:23.275Z,99161.16
2023-05-19T00:41:49.642Z,99167.00
2023-05-19T00:44:15.943Z,99160.94
2023-05-19T00:46:42.346Z,99160.47
2023-05-19T00:49:08.706Z,99167.72
2023-05-19T00:51:35.653Z,99163.44
2023-05-19T00:54:01.980Z,99157.13
2023-05-19T00:56:28.348Z,99167.91
2023-05-19T00:58:54.845Z,99160.41
2023-05-19T01:01:22.386Z,99161.25
2023-05-19T01:03:49.174Z,99160.59
2023-05-19T01:06:15.656Z,99155.69
2023-05-19T01:08:42.117Z,99156.63
2023-05-19T01:11:08.533Z,99157.34
2023-05-19T01:13:35.525Z,99151.06
2023-05-19T01:16:28.107Z,99158.09
2023-05-19T01:18:56.308Z,99150.19
2023-05-19T01:21:37.150Z,99147.63
2023-05-19T01:24:22.847Z,99149.09
2023-05-19T01:27:00.980Z,99150.59
2023-05-19T01:29:29.366Z,99152.47
2023-05-19T01:31:59.077Z,99152.03
2023-05-19T01:34:26.571Z,99153.28
2023-05-19T01:36:54.242Z,99154.34
2023-05-19T01:39:20.787Z,99163.75
2023-05-19T01:41:47.340Z,99156.88
2023-05-19T01:44:13.947Z,99159.09
2023-05-19T01:46:41.041Z,99155.00
2023-05-19T01:49:07.774Z,99165.13
2023-05-19T01:51:34.283Z,99159.44
2023-05-19T01:54:00.635Z,99169.00
2023-05-19T01:56:33.972Z,99165.38
2023-05-19T01:59:04.196Z,99165.38
2023-05-19T02:01:32.487Z,99164.38
2023-05-19T02:04:19.602Z,99162.00
2023-05-19T02:06:59.894Z,99161.88
2023-05-19T02:09:40.734Z,99166.97
2023-05-19T02:12:13.126Z,99172.38
2023-05-19T02:14:41.708Z,99166.56
2023-05-19T02:17:08.674Z,99163.75
2023-05-19T02:19:36.887Z,99158.34
2023-05-19T02:22:03.320Z,99153.91
2023-05-19T02:24:29.665Z,99155.53
2023-05-19T02:26:56.141Z,99150.47
2023-05-19T02:29:22.513Z,99150.13
2023-05-19T02:31:48.916Z,99151.78
2023-05-19T02:34:15.399Z,99143.88
2023-05-19T02:36:43.120Z,99150.91
2023-05-19T02:39:10.837Z,99149.25
2023-05-19T02:41:37.594Z,99151.59
2023-05-19T02:44:04.529Z,99157.44
2023-05-19T02:46:31.148Z,99151.78
2023-05-19T02:48:57.574Z,99153.28
2023-05-19T02:51:23.956Z,99150.28
2023-05-19T02:53:50.493Z,99149.13
2023-05-19T02:56:16.805Z,99151.31
2023-05-19T02:58:43.259Z,99151.31
2023-05-19T03:01:09.805Z,99148.97
2023-05-19T03:03:36.239Z,99149.53
2023-05-19T03:06:02.652Z,99152.53
2023-05-19T03:08:29.055Z,99151.91
2023-05-19T03:10:55.416Z,99143.25
2023-05-19T03:13:21.803Z,99145.97
2023-05-19T03:15:48.946Z,99148.03
2023-05-19T03:18:16.537Z,99147.75
2023-05-19T03:20:44.620Z,99150.47
2023-05-19T03:23:11.057Z,99147.47
2023-05-19T03:25:37.459Z,99145.22
2023-05-19T03:28:03.935Z,99158.06
2023-05-19T03:30:30.669Z,99154.47
2023-05-19T03:32:57.256Z,99151.03
2023-05-19T03:35:23.700Z,99148.97
2023-05-19T03:37:50.045Z,99146.56
2023-05-19T03:40:18.806Z,99146.72
2023-05-19T03:42:45.240Z,99144.97
2023-05-19T03:45:11.569Z,99143.47
2023-05-19T03:47:37.925Z,99143.44
2023-05-19T03:50:04.987Z,99147.59
2023-05-19T03:52:31.311Z,99145.97
2023-05-19T03:54:57.809Z,99150.31
2023-05-19T03:57:24.149Z,99155.56
2023-05-19T03:59:50.580Z,99161.63
2023-05-19T04:02:17.066Z,99165.34
2023-05-19T04:04:43.482Z,99160.44
2023-05-19T04:07:09.831Z,99159.72
2023-05-19T04:09:37.588Z,99165.66
2023-05-19T04:12:04.110Z,99167.91
2023-05-19T04:14:30.465Z,99162.06
2023-05-19T04:16:57.092Z,99167.16
2023-05-19T04:19:23.518Z,99171.03
2023-05-19T04:21:49.915Z,99169.84
2023-05-19T04:24:16.244Z,99163.56
2023-05-19T04:26:45.961Z,99160.59
2023-05-19T04:29:13.836Z,99163.56
2023-05-19T04:31:41.102Z,99153.28
2023-05-19T04:34:08.077Z,99149.28
2023-05-19T04:36:34.452Z,99154.78
2023-05-19T04:39:03.817Z,99162.41
2023-05-19T04:41:30.211Z,99157.63
2023-05-19T04:43:57.560Z,99150.13
2023-05-19T04:46:24.635Z,99156.13
2023-05-19T04:48:51.063Z,99162.69
2023-05-19T04:51:17.684Z,99164.19
2023-05-19T04:53:44.027Z,99159.09
2023-05-19T04:56:13.606Z,99155.97
2023-05-19T04:58:41.987Z,99159.25
2023-05-19T05:01:09.597Z,99152.38
2023-05-19T05:03:36.140Z,99151.94
2023-05-19T05:06:02.564Z,99152.06
2023-05-19T05:08:30.197Z,99147.47
2023-05-19T05:10:56.700Z,99149.81
2023-05-19T05:13:23.924Z,99151.06
2023-05-19T05:15:52.156Z,99144.59
2023-05-19T05:18:18.734Z,99148.47
2023-05-19T05:20:46.275Z,99150.13
2023-05-19T05:23:16.617Z,99137.88
2023-05-19T05:25:43.401Z,99142.13
2023-05-19T05:28:09.985Z,99141.88
2023-05-19T05:30:36.354Z,99142.75
2023-05-19T05:33:02.819Z,99150.38
2023-05-19T05:35:29.324Z,99147.50
2023-05-19T05:37:56.388Z,99149.47
2023-05-19T05:40:22.755Z,99142.84
2023-05-19T05:42:49.212Z,99141.59
2023-05-19T05:45:15.699Z,99148.97
2023-05-19T05:47:42.355Z,99146.56
2023-05-19T05:50:09.346Z,99148.97
2023-05-19T05:52:36.458Z,99151.16
2023-05-19T05:55:03.621Z,99159.53
2023-05-19T05:57:30.793Z,99161.28
2023-05-19T05:59:57.530Z,99164.03
2023-05-19T06:02:23.957Z,99157.50
2023-05-19T06:04:50.833Z,99164.53
2023-05-19T06:07:17.207Z,99175.53
2023-05-19T06:09:43.605Z,99167.44
2023-05-19T06:12:10.003Z,99163.34
2023-05-19T06:14:36.330Z,99179.97
2023-05-19T06:17:02.803Z,99170.75
2023-05-19T06:19:29.285Z,99181.53
2023-05-19T06:21:55.817Z,99182.81
2023-05-19T06:24:22.197Z,99166.94
2023-05-19T06:26:48.529Z,99186.47
2023-05-19T06:29:14.880Z,99176.84
2023-05-19T06:31:41.230Z,99179.38
2023-05-19T06:34:07.664Z,99188.59
2023-05-19T06:36:35.232Z,99182.19
2023-05-19T06:39:02.654Z,99176.00
2023-05-19T06:41:29.289Z,99185.56
2023-05-19T06:43:56.504Z,99191.47
2023-05-19T06:46:22.940Z,99187.97
2023-05-19T06:48:49.303Z,99178.56
2023-05-19T06:51:21.626Z,99184.00
2023-05-19T06:53:49.018Z,99177.53
2023-05-19T06:56:16.008Z,99185.06
2023-05-19T06:58:42.412Z,99175.06
2023-05-19T07:01:08.708Z,99173.84
2023-05-19T07:03:35.551Z,99183.22
2023-05-19T07:06:02.102Z,99182.56
2023-05-19T07:08:28.473Z,99172.13
2023-05-19T07:10:56.038Z,99177.44
2023-05-19T07:13:22.998Z,99174.66
2023-05-19T07:15:52.307Z,99172.22
2023-05-19T07:18:19.773Z,99173.72
2023-05-19T07:20:46.212Z,99171.91
2023-05-19T07:23:12.698Z,99176.75
2023-05-19T07:25:39.126Z,99174.31
2023-05-19T07:28:05.514Z,99171.41
2023-05-19T07:30:32.074Z,99173.06
2023-05-19T07:32:58.777Z,99163.97
2023-05-19T07:35:26.308Z,99165.25
2023-05-19T07:37:52.715Z,99162.72
2023-05-19T07:40:19.137Z,99162.00
2023-05-19T07:42:45.548Z,99164.00
2023-05-19T07:45:11.929Z,99155.31
2023-05-19T07:47:38.427Z,99172.94
2023-05-19T07:50:05.170Z,99173.97
2023-05-19T07:52:31.879Z,99171.44
2023-05-19T07:54:58.913Z,99171.91
2023-05-19T07:57:25.500Z,99167.69
2023-05-19T07:59:52.131Z,99159.19
2023-05-19T08:02:18.497Z,99153.06
2023-05-19T08:04:45.014Z,99164.16
2023-05-19T08:07:11.462Z,99159.53
2023-05-19T08:09:37.850Z,99150.09
2023-05-19T08:12:04.954Z,99154.56
2023-05-19T08:14:33.264Z,99148.31
2023-05-19T08:16:59.643Z,99147.16
2023-05-19T08:19:26.922Z,99149.53
2023-05-19T08:21:53.642Z,99137.41
2023-05-19T08:24:19.974Z,99146.88
2023-05-19T08:26:46.398Z,99139.53
2023-05-19T08:29:12.863Z,99135.44
2023-05-19T08:31:39.528Z,99132.75
2023-05-19T08:34:05.955Z,99152.03
2023-05-19T08:36:33.949Z,99147.50
2023-05-19T08:39:00.428Z,99153.50
2023-05-19T08:41:26.760Z,99159.25
2023-05-19T08:43:53.291Z,99146.53
2023-05-19T08:46:21.632Z,99138.47
2023-05-19T08:48:58.927Z,99130.78
2023-05-19T08:51:31.336Z,99140.44
2023-05-19T08:54:00.433Z,99133.63
2023-05-19T08:56:27.178Z,99152.72
2023-05-19T08:58:54.074Z,99145.00
2023-05-19T09:01:22.076Z,99130.50
2023-05-19T09:03:50.037Z,99135.19
2023-05-19T09:06:17.174Z,99129.31
2023-05-19T09:08:43.856Z,99113.56
2023-05-19T09:11:10.541Z,99136.25
2023-05-19T09:13:37.000Z,99124.09
2023-05-19T09:16:03.935Z,99130.53
2023-05-19T09:18:30.777Z,99128.19
2023-05-19T09:21:11.456Z,99136.75
2023-05-19T09:23:38.378Z,99123.00
2023-05-19T09:26:08.067Z,99126.38
2023-05-19T09:28:43.250Z,99136.31
2023-05-19T09:31:11.549Z,99122.16
2023-05-19T09:33:39.510Z,99144.41
2023-05-19T09:36:08.232Z,99141.69
2023-05-19T09:38:35.816Z,99135.25
2023-05-19T09:41:02.599Z,99131.75
2023-05-19T09:43:30.355Z,99137.59
2023-05-19T09:45:59.713Z,99134.47
2023-05-19T09:48:26.814Z,99120.31
2023-05-19T09:50:54.219Z,99125.94
2023-05-19T09:53:21.469Z,99126.22
2023-05-19T09:55:48.553Z,99122.78
2023-05-19T09:58:21.614Z,99112.38
2023-05-19T10:00:48.903Z,99116.97
2023-05-19T10:03:16.667Z,99111.81
2023-05-19T10:05:45.109Z,99112.53
2023-05-19T10:08:14.442Z,99112.63
2023-05-19T10:10:41.970Z,99118.06
2023-05-19T10:13:09.037Z,99112.94
2023-05-19T10:15:43.695Z,99106.41
2023-05-19T10:18:21.779Z,99124.22
2023-05-19T10:20:49.686Z,99116.56
2023-05-19T10:23:17.357Z,99120.84
2023-05-19T10:25:44.668Z,99111.00
2023-05-19T10:28:15.100Z,99118.53
2023-05-19T10:30:43.520Z,99105.28
2023-05-19T10:33:12.370Z,99114.91
2023-05-19T10:35:42.258Z,99124.59
2023-05-19T10:38:16.749Z,99106.88
2023-05-19T10:40:53.952Z,99110.13
2023-05-19T10:43:39.447Z,99105.31
2023-05-19T10:46:06.600Z,99091.84
2023-05-19T10:48:34.432Z,99097.75
2023-05-19T10:51:01.966Z,99101.75
2023-05-19T10:53:33.210Z,99100.47
2023-05-19T10:56:04.788Z,99096.88
2023-05-19T10:58:43.741Z,99100.16
2023-05-19T11:01:37.212Z,99109.75
2023-05-19T11:04:12.349Z,99090.41
2023-05-19T11:06:40.350Z,99099.38
2023-05-19T11:09:17.514Z,99094.88
2023-05-19T11:11:54.520Z,99110.03
2023-05-19T11:14:27.418Z,99106.41
2023-05-19T11:16:57.628Z,99101.69
2023-05-19T11:19:28.880Z,99105.06
2023-05-19T11:21:57.273Z,99090.41
2023-05-19T11:24:44.409Z,99114.00
2023-05-19T11:27:32.634Z,99098.09
2023-05-19T11:30:01.736Z,99093.97
2023-05-19T11:32:30.205Z,99094.06
2023-05-19T11:34:58.045Z,99099.19
2023-05-19T11:37:24.587Z,99091.44
2023-05-19T11:39:52.301Z,99094.38
2023-05-19T11:42:19.298Z,99101.03
2023-05-19T11:44:46.668Z,99092.22
2023-05-19T11:47:13.329Z,99096.88
2023-05-19T11:49:44.036Z,99086.22
2023-05-19T11:52:10.982Z,99099.28
2023-05-19T11:54:37.735Z,99114.53
2023-05-19T11:57:04.350Z,99112.06
2023-05-19T11:59:36.215Z,99102.94
2023-05-19T12:02:16.609Z,99115.53
2023-05-19T12:04:43.303Z,99108.81
2023-05-19T12:07:12.379Z,99096.81
2023-05-19T12:09:40.290Z,99100.44
2023-05-19T12:12:07.711Z,99100.84
2023-05-19T12:14:34.525Z,99104.16
2023-05-19T12:17:11.103Z,99096.69
2023-05-19T12:19:37.695Z,99103.13
2023-05-19T12:22:06.954Z,99094.03
2023-05-19T12:24:37.576Z,99116.91
2023-05-19T12:27:12.741Z,99101.25
2023-05-19T12:29:40.008Z,99092.59
2023-05-19T12:32:10.291Z,99106.03
2023-05-19T12:34:38.181Z,99102.66
2023-05-19T12:37:05.717Z,99089.00
2023-05-19T12:39:33.697Z,99093.00
2023-05-19T12:42:12.988Z,99080.84
2023-05-19T12:44:46.620Z,99083.56
2023-05-19T12:47:14.840Z,99096.28
2023-05-19T12:50:01.422Z,99100.75
2023-05-19T12:52:29.349Z,99091.47
2023-05-19T12:55:00.559Z,99080.34
2023-05-19T12:57:29.632Z,99094.22
2023-05-19T13:00:07.942Z,99089.47
2023-05-19T13:02:36.481Z,99094.88
2023-05-19T13:05:04.777Z,99086.22
2023-05-19T13:07:31.207Z,99078.16
2023-05-19T13:09:57.633Z,99086.88
2023-05-19T13:12:24.640Z,99074.28
2023-05-19T13:14:51.955Z,99070.44
2023-05-19T13:17:20.570Z,99068.97
2023-05-19T13:19:47.089Z,99068.34
2023-05-19T13:22:14.069Z,99067.78
2023-05-19T13:24:40.835Z,99082.81
2023-05-19T13:27:07.257Z,99071.47
2023-05-19T13:29:34.096Z,99073.38
2023-05-19T13:32:01.640Z,99085.06
2023-05-19T13:34:28.179Z,99079.72
2023-05-19T13:36:54.736Z,99068.38
2023-05-19T13:39:21.178Z,99065.09
2023-05-19T13:41:47.596Z,99059.06
2023-05-19T13:44:14.028Z,99062.63
2023-05-19T13:46:45.565Z,99060.84
2023-05-19T13:49:13.337Z,99048.44
2023-05-19T13:51:43.813Z,99050.66
2023-05-19T13:54:10.489Z,99047.41
2023-05-19T13:56:37.130Z,99043.91
2023-05-19T13:59:04.061Z,99056.22
2023-05-19T14:01:30.757Z,99046.22
2023-05-19T14:03:57.449Z,99044.13
2023-05-19T14:06:24.475Z,99055.88
2023-05-19T14:08:50.902Z,99054.66
2023-05-19T14:11:19.767Z,99051.59
2023-05-19T14:13:53.027Z,99050.84
2023-05-19T14:16:21.890Z,99050.88
2023-05-19T14:18:49.038Z,99045.25
2023-05-19T14:21:15.734Z,99042.44
2023-05-19T14:23:42.247Z,99050.69
2023-05-19T14:26:08.682Z,99049.97
2023-05-19T14:28:35.312Z,99051.72
2023-05-19T14:31:01.789Z,99052.25
2023-05-19T14:33:29.724Z,99057.16
2023-05-19T14:36:00.012Z,99057.06
2023-05-19T14:38:27.687Z,99056.00
2023-05-19T14:40:55.515Z,99077.69
2023-05-19T14:43:22.085Z,99066.66
2023-05-19T14:45:48.858Z,99066.88
2023-05-19T14:48:15.831Z,99055.78
2023-05-19T14:50:42.319Z,99081.53
2023-05-19T14:53:08.797Z,99061.09
2023-05-19T14:55:35.348Z,99055.31
2023-05-19T14:58:01.981Z,99055.47
2023-05-19T15:00:29.872Z,99060.78
2023-05-19T15:02:56.577Z,99057.47
2023-05-19T15:05:24.219Z,99056.72
2023-05-19T15:07:51.029Z,99065.34
2023-05-19T15:10:20.323Z,99063.94
2023-05-19T15:12:46.935Z,99056.81
2023-05-19T15:15:14.108Z,99068.38
2023-05-19T15:17:40.628Z,99069.53
2023-05-19T15:20:07.525Z,99073.34
2023-05-19T15:22:34.519Z,99065.16
2023-05-19T15:25:01.090Z,99072.28
2023-05-19T15:27:27.603Z,99071.28
2023-05-19T15:29:54.068Z,99067.69
2023-05-19T15:32:20.670Z,99061.63
2023-05-19T15:34:47.273Z,99062.78
2023-05-19T15:37:13.681Z,99075.47
2023-05-19T15:39:40.404Z,99067.34
2023-05-19T15:42:06.782Z,99065.00
2023-05-19T15:44:33.263Z,99070.69
2023-05-19T15:46:59.916Z,99065.56
2023-05-19T15:49:26.354Z,99062.75
2023-05-19T15:51:52.783Z,99066.50
2023-05-19T15:54:19.190Z,99067.25
2023-05-19T15:56:45.721Z,99064.25
2023-05-19T15:59:12.137Z,99054.63
2023-05-19T16:01:38.760Z,99065.56
2023-05-19T16:04:05.513Z,99065.31
2023-05-19T16:06:32.195Z,99066.56
2023-05-19T16:08:58.598Z,99074.63
2023-05-19T16:11:25.014Z,99073.88
2023-05-19T16:13:51.463Z,99075.25
2023-05-19T16:16:18.805Z,99067.34
2023-05-19T16:18:45.538Z,99072.78
2023-05-19T16:21:11.986Z,99077.53
2023-05-19T16:23:38.526Z,99078.19
2023-05-19T16:26:05.046Z,99074.81
2023-05-19T16:28:32.436Z,99070.34
2023-05-19T16:30:59.940Z,99090.88
2023-05-19T16:33:26.767Z,99077.25
2023-05-19T16:35:53.313Z,99072.91
2023-05-19T16:38:19.822Z,99074.66
2023-05-19T16:40:46.278Z,99073.94
2023-05-19T16:43:12.717Z,99076.53
2023-05-19T16:45:39.729Z,99083.22
2023-05-19T16:48:06.347Z,99084.16
2023-05-19T16:50:32.986Z,99090.47
2023-05-19T16:52:59.482Z,99093.75
2023-05-19T16:55:26.986Z,99097.06
2023-05-19T16:57:53.406Z,99105.53
2023-05-19T17:00:20.050Z,99099.78
2023-05-19T17:02:46.565Z,99086.41
2023-05-19T17:05:13.178Z,99083.84
2023-05-19T17:07:39.615Z,99082.66
2023-05-19T17:10:06.435Z,99089.91
2023-05-19T17:12:32.882Z,99084.72
2023-05-19T17:14:59.303Z,99075.78
2023-05-19T17:17:25.953Z,99075.91
2023-05-19T17:19:52.613Z,99068.47
2023-05-19T17:22:19.248Z,99093.34
2023-05-19T17:24:45.824Z,99076.22
2023-05-19T17:27:12.243Z,99071.84
2023-05-19T17:29:38.781Z,99075.88
2023-05-19T17:32:05.303Z,99085.03
2023-05-19T17:34:32.265Z,99074.81
2023-05-19T17:36:59.611Z,99075.97
2023-05-19T17:39:26.102Z,99082.91
2023-05-19T17:41:52.592Z,99086.41
2023-05-19T17:44:19.128Z,99082.56
2023-05-19T17:46:45.749Z,99081.84
2023-05-19T17:49:13.137Z,99084.59
2023-05-19T17:51:39.758Z,99077.72
2023-05-19T17:54:06.675Z,99088.13
2023-05-19T17:56:34.293Z,99076.91
2023-05-19T17:59:01.356Z,99082.34
2023-05-19T18:01:28.062Z,99082.88
2023-05-19T18:03:54.922Z,99082.00
2023-05-19T18:06:22.410Z,99077.16
2023-05-19T18:08:51.378Z,99094.38
2023-05-19T18:11:18.663Z,99072.53
2023-05-19T18:13:45.130Z,99079.41
2023-05-19T18:16:12.268Z,99081.28
2023-05-19T18:18:41.148Z,99080.63
2023-05-19T18:21:07.729Z,99083.44
2023-05-19T18:23:34.182Z,99080.56
2023-05-19T18:26:00.767Z,99080.78
2023-05-19T18:28:27.265Z,99076.50
2023-05-19T18:31:01.251Z,99080.41
2023-05-19T18:33:30.113Z,99078.81
2023-05-19T18:35:58.213Z,99074.22
2023-05-19T18:38:24.839Z,99075.13
2023-05-19T18:40:51.859Z,99074.47
2023-05-19T18:43:18.771Z,99077.19
2023-05-19T18:45:48.491Z,99068.84
2023-05-19T18:48:15.561Z,99078.81
2023-05-19T18:50:44.519Z,99069.84
2023-05-19T18:53:11.858Z,99073.91
2023-05-19T18:55:38.689Z,99076.25
2023-05-19T18:58:06.150Z,99071.16
2023-05-19T19:00:33.244Z,99070.81
2023-05-19T19:03:00.093Z,99070.50
2023-05-19T19:05:26.631Z,99073.53
2023-05-19T19:07:53.373Z,99090.09
2023-05-19T19:10:19.996Z,99086.69
2023-05-19T19:12:46.653Z,99091.78
2023-05-19T19:15:14.085Z,99108.41
2023-05-19T19:17:41.224Z,99097.94
2023-05-19T19:20:08.711Z,99099.09
2023-05-19T19:22:35.257Z,99098.53
2023-05-19T19:25:01.687Z,99105.91
2023-05-19T19:27:31.096Z,99093.91
2023-05-19T19:30:01.418Z,99106.16
2023-05-19T19:32:27.961Z,99095.53
2023-05-19T19:34:54.521Z,99097.19
2023-05-19T19:37:20.995Z,99092.00
2023-05-19T19:39:47.547Z,99101.50
2023-05-19T19:42:14.113Z,99094.66
2023-05-19T19:44:40.771Z,99103.50
2023-05-19T19:47:07.678Z,99101.19
2023-05-19T19:49:34.168Z,99103.63
2023-05-19T19:52:00.846Z,99102.56
2023-05-19T19:54:27.497Z,99108.53
2023-05-19T19:56:53.982Z,99101.34
2023-05-19T19:59:20.627Z,99106.00
